TZ-0051 weather

Rungwa Airport
Rungwa, Singida Region, Tanzania

Public forecast

Using degrees Celsius for public forecast. Weather courtesy of forecast.io.

Closest aviation weather report (METAR) to Rungwa Airport

Closest report is Tabora Airport, 119.1 nm (220.6 km) NNW. Retrieved 2020/06/02 07:00 UTC (24 minutes ago):

HTTB 020700Z 04512KT CAVOK 23/14 Q1021 NOSIG

Closest aviation forecast (TAF) to Rungwa Airport

Forecast is more than 12 hours old.

Closest forecast is Tabora Airport, 119.1 nm (220.6 km) NNW. Retrieved 2020/05/16 18:33 UTC (17 days ago):

TAF HTTB 161700Z 1618/1718 16010KT 9999 SCT020